Time;durP1;ratioP1;P1;durP2;ratioP2;P2;SDS_P1;SDS_P2;PMS_P1;PMS_P2;Temp;Humidity;BMP_temperature;BMP_pressure;BME280_temperature;BME280_humidity;BME280_pressure;Samples;Min_cycle;Max_cycle;Signal;HPM_P1;HPM_P2
2021/09/06 00:02:11;;;;;;;12.48;9.60;;;13.20;99.90;;;;;;5118762;28;20099;-90
2021/09/06 00:05:04;;;;;;;13.07;8.73;;;13.20;99.90;;;;;;5133454;28;20048;-90
2021/09/06 00:07:52;;;;;;;;;;;13.20;99.90;;;;;;5128392;28;20036;-90
2021/09/06 00:10:44;;;;;;;15.25;9.50;;;13.20;99.90;;;;;;5093009;28;20084;-89
2021/09/06 00:13:32;;;;;;;14.95;9.32;;;13.20;99.90;;;;;;5108595;28;20046;-89
2021/09/06 00:16:19;;;;;;;13.63;9.52;;;13.10;99.90;;;;;;5108108;28;20375;-89
2021/09/06 00:19:09;;;;;;;12.40;8.90;;;13.10;99.90;;;;;;5107275;28;20044;-91
2021/09/06 00:21:56;;;;;;;10.73;8.55;;;13.00;99.90;;;;;;5093713;28;20048;-90
2021/09/06 00:24:44;;;;;;;14.52;9.18;;;12.90;99.90;;;;;;5106583;28;20116;-91
2021/09/06 00:27:34;;;;;;;13.80;9.43;;;12.80;99.90;;;;;;5093252;28;20043;-89
2021/09/06 00:30:21;;;;;;;11.27;9.10;;;12.80;99.90;;;;;;5106167;28;20456;-89
2021/09/06 00:33:09;;;;;;;16.35;9.07;;;12.80;99.90;;;;;;5105731;28;20040;-89
2021/09/06 00:35:58;;;;;;;12.25;9.35;;;12.80;99.90;;;;;;5104810;28;20040;-90
2021/09/06 00:38:48;;;;;;;12.55;9.05;;;12.70;99.90;;;;;;5116242;28;20361;-90
2021/09/06 00:41:42;;;;;;;16.50;9.73;;;12.70;99.90;;;;;;5100796;28;20059;-90
2021/09/06 00:44:30;;;;;;;11.68;9.40;;;12.70;99.90;;;;;;5088852;28;20112;-89
2021/09/06 00:47:20;;;;;;;12.95;9.23;;;12.60;99.90;;;;;;5086376;28;20439;-90
2021/09/06 00:50:12;;;;;;;13.43;9.85;;;12.50;99.90;;;;;;5099750;28;20031;-91
2021/09/06 00:53:02;;;;;;;13.77;10.00;;;12.50;99.90;;;;;;5100917;28;20046;-89
2021/09/06 00:55:50;;;;;;;15.32;10.00;;;12.40;99.90;;;;;;5114054;28;20036;-90
2021/09/06 00:58:37;;;;;;;14.98;10.40;;;12.40;99.90;;;;;;5099986;28;20052;-90
2021/09/06 01:01:27;;;;;;;13.73;9.77;;;12.40;99.90;;;;;;5099830;28;20184;-91
2021/09/06 01:04:15;;;;;;;12.45;9.77;;;12.30;99.90;;;;;;5087268;28;20055;-90
2021/09/06 01:07:06;;;;;;;14.90;10.75;;;12.30;99.90;;;;;;5084907;28;20051;-90
2021/09/06 01:09:56;;;;;;;14.45;10.68;;;12.30;99.90;;;;;;5085289;28;20039;-90
2021/09/06 01:12:44;;;;;;;14.27;10.30;;;12.20;99.90;;;;;;5100941;28;20118;-90
2021/09/06 01:15:31;;;;;;;12.32;9.45;;;12.20;99.90;;;;;;5101497;28;20132;-91
2021/09/06 01:18:19;;;;;;;15.68;10.20;;;12.20;99.90;;;;;;5073678;28;20047;-89
2021/09/06 01:21:06;;;;;;;13.75;10.20;;;12.10;99.90;;;;;;5100513;28;20044;-88
2021/09/06 01:23:54;;;;;;;18.55;10.70;;;12.10;99.90;;;;;;5085291;28;20063;-91
2021/09/06 01:26:42;;;;;;;14.57;10.98;;;12.10;99.90;;;;;;5099792;28;20051;-90
2021/09/06 01:29:31;;;;;;;12.20;10.00;;;12.00;99.90;;;;;;5100284;28;20192;-89
2021/09/06 01:32:19;;;;;;;13.20;10.10;;;12.00;99.90;;;;;;5113674;28;20047;-90
2021/09/06 01:35:07;;;;;;;14.80;10.90;;;12.00;99.90;;;;;;5100462;28;20142;-90
2021/09/06 01:37:58;;;;;;;12.23;10.50;;;12.00;99.90;;;;;;5109296;28;20050;-90
2021/09/06 01:40:46;;;;;;;15.80;10.52;;;12.00;99.90;;;;;;5111257;28;20040;-91
2021/09/06 01:43:36;;;;;;;14.65;11.23;;;12.00;99.90;;;;;;5118029;28;20114;-90
2021/09/06 01:46:29;;;;;;;15.63;10.07;;;12.00;99.90;;;;;;5113287;28;20040;-90
2021/09/06 01:49:18;;;;;;;14.55;10.18;;;11.90;99.90;;;;;;5130329;27;20078;-91
2021/09/06 01:52:09;;;;;;;12.18;10.52;;;11.90;99.90;;;;;;5105585;28;20052;-90
2021/09/06 01:54:56;;;;;;;15.63;10.70;;;11.80;99.90;;;;;;5106776;28;20127;-90
2021/09/06 01:57:45;;;;;;;13.35;9.90;;;11.90;99.90;;;;;;5101034;28;20040;-90
2021/09/06 02:00:33;;;;;;;14.88;10.60;;;11.90;99.90;;;;;;5100280;28;20036;-90
2021/09/06 02:03:20;;;;;;;14.18;10.95;;;11.80;99.90;;;;;;5085603;28;20055;-89
2021/09/06 02:06:09;;;;;;;12.18;10.25;;;11.80;99.90;;;;;;5084599;28;20484;-90
2021/09/06 02:09:00;;;;;;;14.70;11.38;;;11.80;99.90;;;;;;5113799;28;20036;-90
2021/09/06 02:11:52;;;;;;;12.73;10.52;;;11.80;99.90;;;;;;5100691;28;20036;-90
2021/09/06 02:14:40;;;;;;;13.48;10.95;;;11.80;99.90;;;;;;5113236;28;20146;-90
2021/09/06 02:17:27;;;;;;;12.82;10.32;;;11.80;99.90;;;;;;5084754;28;20071;-91
2021/09/06 02:20:15;;;;;;;12.98;10.00;;;11.90;99.90;;;;;;5098444;28;20047;-91
2021/09/06 02:23:02;;;;;;;17.35;10.80;;;11.80;99.90;;;;;;5090165;28;20047;-90
2021/09/06 02:25:49;;;;;;;14.52;10.57;;;11.80;99.90;;;;;;5103460;28;20330;-90
2021/09/06 02:28:37;;;;;;;15.55;10.48;;;11.70;99.90;;;;;;5088333;28;20461;-90
2021/09/06 02:31:25;;;;;;;18.98;10.90;;;11.70;99.90;;;;;;5104016;28;20040;-91
2021/09/06 02:34:13;;;;;;;14.35;10.30;;;11.70;99.90;;;;;;5117562;28;20476;-92
2021/09/06 02:37:01;;;;;;;13.95;9.10;;;11.70;99.90;;;;;;5102756;28;20120;-90
2021/09/06 02:39:48;;;;;;;15.80;11.57;;;11.60;99.90;;;;;;5089197;28;20052;-90
2021/09/06 02:42:37;;;;;;;17.15;10.63;;;11.50;99.90;;;;;;5103243;28;20123;-89
2021/09/06 02:45:25;;;;;;;16.40;11.07;;;11.50;99.90;;;;;;5088837;28;20048;-89
2021/09/06 02:48:12;;;;;;;14.32;10.40;;;11.50;99.90;;;;;;5102431;28;20047;-92
2021/09/06 02:51:00;;;;;;;12.48;10.82;;;11.40;99.90;;;;;;5102271;28;20140;-90
2021/09/06 02:53:47;;;;;;;14.63;11.23;;;11.30;99.90;;;;;;5088193;28;20036;-90
2021/09/06 02:56:37;;;;;;;16.77;12.00;;;11.20;99.90;;;;;;5102450;28;20131;-89
2021/09/06 02:59:30;;;;;;;17.58;13.10;;;11.10;99.90;;;;;;5117501;28;20047;-89
2021/09/06 03:02:18;;;;;;;16.15;12.50;;;11.10;99.90;;;;;;5102738;28;20177;-90
2021/09/06 03:05:06;;;;;;;15.45;12.43;;;11.10;99.90;;;;;;5117293;28;20056;-91
2021/09/06 03:07:55;;;;;;;19.70;13.45;;;11.10;99.90;;;;;;5088198;28;20046;-93
2021/09/06 03:10:44;;;;;;;19.80;13.23;;;11.10;99.90;;;;;;5101334;28;20044;-90
2021/09/06 03:13:32;;;;;;;16.67;13.13;;;11.10;99.90;;;;;;5116806;28;20043;-90
2021/09/06 03:16:22;;;;;;;21.55;13.30;;;11.10;99.90;;;;;;5087780;28;20059;-91
2021/09/06 03:19:09;;;;;;;16.15;12.90;;;11.10;99.90;;;;;;5088340;28;20070;-92
2021/09/06 03:21:56;;;;;;;16.33;13.18;;;11.10;99.90;;;;;;5088036;28;20162;-88
2021/09/06 03:24:44;;;;;;;18.63;12.82;;;11.00;99.90;;;;;;5102394;28;20044;-90
2021/09/06 03:27:31;;;;;;;17.63;12.88;;;11.00;99.90;;;;;;5116271;28;20048;-90
2021/09/06 03:30:22;;;;;;;22.10;13.35;;;11.00;99.90;;;;;;5101360;28;20487;-89
2021/09/06 03:33:13;;;;;;;19.55;14.73;;;11.00;99.90;;;;;;5102326;28;20044;-91
2021/09/06 03:36:03;;;;;;;17.90;14.40;;;11.10;99.90;;;;;;5088371;28;20047;-91
2021/09/06 03:38:51;;;;;;;19.38;13.95;;;11.10;99.90;;;;;;5087768;28;20046;-90
2021/09/06 03:41:39;;;;;;;20.83;14.23;;;11.10;99.90;;;;;;5115253;28;20073;-91
2021/09/06 03:44:29;;;;;;;16.52;13.27;;;11.00;99.90;;;;;;5087525;28;20044;-89
2021/09/06 03:47:18;;;;;;;17.05;13.30;;;11.00;99.90;;;;;;5088207;28;20051;-90
2021/09/06 03:50:05;;;;;;;18.65;13.68;;;10.90;99.90;;;;;;5101992;28;20123;-91
2021/09/06 03:52:55;;;;;;;17.70;14.25;;;10.90;99.90;;;;;;5101500;28;20036;-91
2021/09/06 03:55:43;;;;;;;20.35;14.73;;;10.90;99.90;;;;;;5116218;28;20463;-91
2021/09/06 03:58:31;;;;;;;23.70;15.63;;;10.80;99.90;;;;;;5087117;28;20047;-91
2021/09/06 04:01:20;;;;;;;19.10;13.90;;;10.80;99.90;;;;;;5100853;28;20124;-90
2021/09/06 04:04:18;;;;;;;16.88;13.52;;;10.80;99.90;;;;;;5103054;28;20048;-90
2021/09/06 04:07:11;;;;;;;17.52;13.73;;;10.60;99.90;;;;;;5089802;28;20097;-91
2021/09/06 04:10:20;;;;;;;;;;;10.60;99.90;;;;;;5077855;28;20051;-91
2021/09/06 04:13:07;;;;;;;16.38;13.45;;;10.50;99.90;;;;;;5115516;28;19923;-91
2021/09/06 04:15:55;;;;;;;28.42;16.42;;;10.50;99.90;;;;;;5086425;28;20059;-90
2021/09/06 04:18:44;;;;;;;21.67;14.32;;;10.50;99.90;;;;;;5116628;28;20040;-90
2021/09/06 04:21:31;;;;;;;19.45;14.18;;;10.60;99.90;;;;;;5117097;28;20124;-91
2021/09/06 04:24:19;;;;;;;23.98;16.02;;;10.60;99.90;;;;;;5101340;28;20064;-90
2021/09/06 04:27:06;;;;;;;22.40;14.60;;;10.50;99.90;;;;;;5102745;28;20467;-90
2021/09/06 04:29:53;;;;;;;18.80;14.93;;;10.50;99.90;;;;;;5086588;28;20124;-91
2021/09/06 04:32:41;;;;;;;19.15;14.65;;;10.50;99.90;;;;;;5086078;28;20462;-87
2021/09/06 04:35:28;;;;;;;18.83;14.02;;;10.50;99.90;;;;;;5100154;28;20472;-90
2021/09/06 04:38:16;;;;;;;19.45;14.82;;;10.50;99.90;;;;;;5101187;28;20377;-90
2021/09/06 04:54:21;;;;;;;22.00;16.00;;;10.30;99.90;;;;;;5114660;28;20015;-92
2021/09/06 05:01:24;;;;;;;25.77;18.73;;;10.20;99.90;;;;;;5117511;28;20028;-89
2021/09/06 05:08:45;;;;;;;25.33;17.48;;;10.20;99.90;;;;;;5034668;28;20056;-88
2021/09/06 05:11:36;;;;;;;26.27;17.65;;;10.40;99.90;;;;;;5094213;28;20149;-89
2021/09/06 05:14:28;;;;;;;25.02;16.45;;;10.40;99.90;;;;;;5080593;28;20050;-87
2021/09/06 05:17:15;;;;;;;24.23;17.45;;;10.40;99.90;;;;;;5078312;28;20038;-88
2021/09/06 05:20:04;;;;;;;23.48;18.15;;;10.40;99.90;;;;;;5095185;28;20044;-86
2021/09/06 05:22:52;;;;;;;24.10;16.67;;;10.50;99.90;;;;;;5078622;28;20036;-85
2021/09/06 05:25:40;;;;;;;24.52;17.75;;;10.60;99.90;;;;;;5079004;28;20085;-87
2021/09/06 05:28:27;;;;;;;23.95;17.55;;;10.70;99.90;;;;;;5065820;28;20036;-86
2021/09/06 05:31:15;;;;;;;28.08;16.83;;;10.70;99.90;;;;;;5065597;28;20044;-85
2021/09/06 05:34:03;;;;;;;25.15;15.77;;;10.70;99.90;;;;;;5093719;28;20555;-85
2021/09/06 05:36:50;;;;;;;20.70;15.18;;;10.80;99.90;;;;;;5065538;28;20107;-87
2021/09/06 05:39:38;;;;;;;20.73;14.98;;;10.80;99.90;;;;;;5080291;28;20143;-88
2021/09/06 05:42:29;;;;;;;19.05;14.45;;;10.90;99.90;;;;;;5075840;28;20051;-90
2021/09/06 05:45:18;;;;;;;21.17;14.82;;;11.00;99.90;;;;;;5078992;28;20084;-87
2021/09/06 05:48:06;;;;;;;22.25;16.05;;;11.10;99.90;;;;;;5092960;28;20040;-85
2021/09/06 05:50:54;;;;;;;20.50;16.00;;;11.10;99.90;;;;;;5110446;28;20040;-88
2021/09/06 05:53:51;;;;;;;18.35;14.90;;;11.30;99.90;;;;;;5082452;28;20040;-87
2021/09/06 05:56:46;;;;;;;18.23;13.35;;;11.30;99.90;;;;;;5100053;28;20044;-88
2021/09/06 05:59:37;;;;;;;17.33;12.82;;;11.50;99.90;;;;;;5095234;28;20024;-88
2021/09/06 06:02:24;;;;;;;15.88;12.75;;;11.60;99.90;;;;;;5086715;28;20024;-88
2021/09/06 06:05:13;;;;;;;19.00;12.45;;;11.70;99.90;;;;;;5094475;28;20112;-87
2021/09/06 06:08:03;;;;;;;15.23;11.73;;;11.70;99.90;;;;;;5104105;28;20055;-88
2021/09/06 06:10:50;;;;;;;16.17;12.38;;;11.80;99.90;;;;;;5089779;28;20452;-89
2021/09/06 06:13:38;;;;;;;16.98;11.60;;;11.90;99.90;;;;;;5081696;28;20036;-88
2021/09/06 06:16:27;;;;;;;16.95;11.32;;;12.00;99.90;;;;;;5083388;28;20043;-92
2021/09/06 06:19:26;;;;;;;21.08;12.60;;;12.10;99.90;;;;;;5083808;28;20067;-92
2021/09/06 06:22:13;;;;;;;26.63;12.68;;;12.30;99.90;;;;;;5078740;28;20037;-87
2021/09/06 06:25:01;;;;;;;16.10;11.63;;;12.40;99.90;;;;;;5078235;28;20037;-89
2021/09/06 06:27:51;;;;;;;15.85;12.15;;;12.60;99.90;;;;;;5078952;28;20039;-90
2021/09/06 06:30:40;;;;;;;15.45;10.93;;;13.00;99.90;;;;;;5092071;28;20044;-85
2021/09/06 06:33:29;;;;;;;18.83;10.43;;;13.40;99.90;;;;;;5078679;28;20346;-87
2021/09/06 06:36:19;;;;;;;12.52;8.68;;;13.80;99.90;;;;;;5078138;28;20418;-87
2021/09/06 06:39:26;;;;;;;12.25;8.43;;;14.30;99.90;;;;;;5081118;28;20059;-88
2021/09/06 06:42:14;;;;;;;10.60;7.75;;;14.90;99.90;;;;;;5091907;28;20445;-89
2021/09/06 06:45:01;;;;;;;12.65;7.85;;;15.60;99.90;;;;;;5096171;28;20048;-90
2021/09/06 06:47:57;;;;;;;12.48;7.93;;;16.30;99.90;;;;;;5096667;28;20044;-91
2021/09/06 06:51:17;;;;;;;13.43;7.70;;;17.10;99.90;;;;;;5101571;28;20040;-92
2021/09/06 06:54:28;;;;;;;12.00;7.22;;;17.70;99.90;;;;;;5090544;28;20036;-91
2021/09/06 06:57:45;;;;;;;8.85;7.63;;;18.10;99.90;;;;;;5067382;28;20370;-91
2021/09/06 07:00:46;;;;;;;11.48;7.68;;;18.20;99.90;;;;;;5049390;28;20305;-88
2021/09/06 07:03:34;;;;;;;12.88;7.28;;;18.50;99.90;;;;;;5056795;28;20334;-87
2021/09/06 07:06:22;;;;;;;9.75;7.40;;;18.70;99.90;;;;;;5063147;28;20424;-89
2021/09/06 07:09:09;;;;;;;10.32;7.30;;;19.10;99.90;;;;;;5069659;28;20052;-89
2021/09/06 07:12:00;;;;;;;10.85;7.97;;;19.30;99.90;;;;;;5053698;28;20477;-87
2021/09/06 07:14:49;;;;;;;17.13;8.50;;;19.30;99.90;;;;;;5060857;28;20055;-88
2021/09/06 07:17:37;;;;;;;14.95;8.68;;;18.80;99.90;;;;;;5105863;28;20206;-89
2021/09/06 07:20:28;;;;;;;12.43;8.50;;;18.30;99.90;;;;;;5103831;28;20123;-91
2021/09/06 07:23:15;;;;;;;16.13;8.60;;;18.20;99.90;;;;;;5111280;28;20044;-89
2021/09/06 07:26:05;;;;;;;15.30;8.98;;;18.00;99.90;;;;;;5089849;28;20044;-89
2021/09/06 07:28:58;;;;;;;10.98;8.48;;;17.90;99.90;;;;;;5100268;28;20057;-87
2021/09/06 07:31:49;;;;;;;17.85;9.05;;;17.70;99.90;;;;;;5096535;28;20040;-88
2021/09/06 07:34:57;;;;;;;12.43;8.63;;;17.60;99.90;;;;;;5081104;28;20376;-87
2021/09/06 07:37:46;;;;;;;12.45;8.23;;;17.70;99.90;;;;;;5094715;28;20036;-88
2021/09/06 07:40:33;;;;;;;11.18;7.50;;;18.10;99.90;;;;;;5081670;28;20469;-88
2021/09/06 07:47:13;;;;;;;;;;;;;;;;;;;;;
2021/09/06 07:50:12;;;;;;;12.05;7.47;;;18.60;99.90;;;;;;5096362;28;20051;-88
2021/09/06 07:53:12;;;;;;;;;;;;;;;;;;;;;
2021/09/06 07:57:08;;;;;;;9.43;6.47;;;18.90;99.90;;;;;;5026429;28;20045;-90
2021/09/06 08:00:10;;;;;;;9.90;7.60;;;19.10;99.90;;;;;;5033112;28;20050;-86
2021/09/06 08:02:59;;;;;;;11.52;6.88;;;19.40;99.90;;;;;;5033346;28;20128;-85
2021/09/06 08:05:47;;;;;;;9.38;7.10;;;19.70;99.90;;;;;;5020607;28;20551;-86
2021/09/06 08:08:37;;;;;;;7.32;6.38;;;20.30;99.90;;;;;;5022721;28;20139;-91
2021/09/06 08:11:24;;;;;;;9.20;6.40;;;21.50;99.90;;;;;;5036125;28;20458;-93
2021/09/06 08:14:27;;;;;;;17.23;6.93;;;22.20;95.20;;;;;;5067307;28;20055;-86
2021/09/06 08:17:16;;;;;;;9.40;6.18;;;22.60;96.60;;;;;;5081370;28;20483;-89
2021/09/06 08:20:06;;;;;;;6.35;5.68;;;23.50;91.30;;;;;;5080702;28;20117;-87
2021/09/06 08:22:57;;;;;;;7.33;5.97;;;24.60;81.80;;;;;;5097611;28;20040;-88
2021/09/06 08:25:44;;;;;;;10.23;5.97;;;25.50;79.00;;;;;;5086365;28;20073;-89
2021/09/06 08:29:02;;;;;;;10.48;5.80;;;26.00;70.30;;;;;;5098423;28;20064;-93
2021/09/06 08:31:49;;;;;;;7.75;5.82;;;26.50;66.20;;;;;;5094399;28;20040;-88
2021/09/06 08:34:37;;;;;;;8.65;6.20;;;27.30;63.20;;;;;;5082513;28;20055;-93
2021/09/06 08:37:28;;;;;;;6.05;5.43;;;27.30;61.40;;;;;;5095714;28;20040;-88
2021/09/06 08:40:17;;;;;;;8.43;5.72;;;27.20;61.30;;;;;;5097213;28;20111;-90
2021/09/06 08:43:07;;;;;;;7.70;5.32;;;27.80;62.60;;;;;;5095853;28;20072;-88
2021/09/06 08:45:57;;;;;;;7.00;5.70;;;27.80;63.40;;;;;;5094976;28;20114;-89
2021/09/06 08:48:50;;;;;;;10.93;5.90;;;27.90;58.70;;;;;;5082335;28;20044;-90
2021/09/06 08:51:58;;;;;;;9.35;5.45;;;28.50;54.90;;;;;;5094429;28;20193;-89
2021/09/06 08:55:10;;;;;;;8.93;5.30;;;28.80;58.90;;;;;;5066454;28;20374;-89
2021/09/06 08:58:00;;;;;;;6.35;5.07;;;28.60;58.50;;;;;;5062813;28;20059;-88
2021/09/06 09:00:50;;;;;;;;;;;28.70;53.70;;;;;;5048207;28;20333;-88
2021/09/06 09:03:43;;;;;;;6.28;4.85;;;28.70;51.80;;;;;;5059799;28;19924;-88
2021/09/06 09:06:40;;;;;;;8.63;5.90;;;28.80;53.90;;;;;;5032241;28;20175;-89
2021/09/06 09:09:35;;;;;;;7.22;5.07;;;29.20;56.40;;;;;;5059532;28;20044;-89
2021/09/06 09:12:27;;;;;;;6.28;5.05;;;29.20;55.10;;;;;;5059645;28;20186;-89
2021/09/06 09:15:20;;;;;;;6.35;5.55;;;29.70;56.90;;;;;;5059558;28;20140;-88
2021/09/06 09:18:28;;;;;;;7.45;4.70;;;29.50;55.10;;;;;;5075692;28;20047;-88
2021/09/06 09:21:21;;;;;;;6.00;5.10;;;30.10;55.10;;;;;;5093855;28;20126;-90
2021/09/06 09:24:31;;;;;;;;;;;;;;;;;;;;;
2021/09/06 09:28:02;;;;;;;8.25;5.60;;;31.00;50.00;;;;;;5097214;28;20054;-92
2021/09/06 09:30:55;;;;;;;6.22;5.47;;;30.60;51.80;;;;;;5097157;28;20138;-92
2021/09/06 09:34:02;;;;;;;;;;;30.30;50.20;;;;;;5097722;28;20410;-91
2021/09/06 09:36:54;;;;;;;6.15;5.55;;;30.20;50.90;;;;;;5081753;28;19931;-87
2021/09/06 09:39:54;;;;;;;6.85;5.78;;;30.20;50.70;;;;;;5096602;28;20325;-89
2021/09/06 09:42:51;;;;;;;6.53;5.68;;;30.60;50.20;;;;;;5096916;28;20098;-90
2021/09/06 09:46:04;;;;;;;8.38;5.50;;;31.00;50.40;;;;;;5097184;28;20112;-90
2021/09/06 09:48:56;;;;;;;6.30;5.53;;;30.90;47.90;;;;;;5099462;28;20108;-92
2021/09/06 09:51:44;;;;;;;6.50;5.80;;;30.80;49.50;;;;;;5095642;28;20082;-89
2021/09/06 09:54:34;;;;;;;8.38;5.55;;;31.00;48.70;;;;;;5095649;28;20051;-93
2021/09/06 09:57:28;;;;;;;6.28;5.65;;;30.90;46.80;;;;;;5081038;28;20040;-91
2021/09/06 10:00:16;;;;;;;6.35;5.75;;;31.10;48.40;;;;;;5082335;28;20044;-89
2021/09/06 10:03:06;;;;;;;7.00;5.65;;;31.00;48.30;;;;;;5115340;28;20054;-90
2021/09/06 10:05:54;;;;;;;6.72;5.95;;;31.40;46.90;;;;;;5110843;28;20071;-89
2021/09/06 10:08:43;;;;;;;8.05;5.28;;;31.60;46.50;;;;;;5107740;28;20090;-92
2021/09/06 10:11:36;;;;;;;6.68;5.68;;;31.80;48.00;;;;;;5096618;28;20068;-91
2021/09/06 10:14:46;;;;;;;6.43;5.70;;;32.10;46.40;;;;;;5093388;28;20055;-90
2021/09/06 10:17:37;;;;;;;8.15;6.10;;;32.20;46.70;;;;;;5093176;28;20115;-88
2021/09/06 10:20:26;;;;;;;6.18;5.57;;;32.20;43.70;;;;;;5093049;28;20051;-89
2021/09/06 10:23:13;;;;;;;5.90;5.30;;;32.20;46.00;;;;;;5093077;28;20048;-87
2021/09/06 10:26:10;;;;;;;9.07;5.40;;;32.70;45.10;;;;;;5092814;28;20040;-89
2021/09/06 10:29:10;;;;;;;5.75;5.10;;;32.50;44.40;;;;;;5092973;28;20036;-88
2021/09/06 10:32:02;;;;;;;7.00;5.75;;;32.70;44.80;;;;;;5092939;28;20059;-90
2021/09/06 10:35:02;;;;;;;7.75;5.43;;;32.70;45.20;;;;;;5093126;28;20456;-89
2021/09/06 10:38:10;;;;;;;7.80;4.93;;;32.40;44.50;;;;;;5092354;28;20043;-88
2021/09/06 10:41:12;;;;;;;7.25;6.30;;;32.90;46.70;;;;;;5093811;28;20044;-90
2021/09/06 10:44:08;;;;;;;6.53;5.90;;;33.40;42.60;;;;;;5096734;28;20129;-90
2021/09/06 10:47:07;;;;;;;7.75;5.78;;;32.80;44.40;;;;;;5096727;28;20485;-90
2021/09/06 10:49:56;;;;;;;6.30;5.25;;;32.60;43.20;;;;;;5083222;28;20062;-87
2021/09/06 10:52:47;;;;;;;8.32;5.80;;;33.50;43.20;;;;;;5082718;28;20154;-89
2021/09/06 10:55:38;;;;;;;10.55;5.93;;;33.50;43.20;;;;;;5097706;28;20051;-88
2021/09/06 10:58:32;;;;;;;6.65;5.35;;;33.60;42.50;;;;;;5096138;28;20526;-90
2021/09/06 11:01:19;;;;;;;6.95;5.80;;;34.10;40.40;;;;;;5083203;28;20067;-88
2021/09/06 11:04:08;;;;;;;6.53;5.65;;;34.00;40.40;;;;;;5083071;28;20067;-88
2021/09/06 11:07:06;;;;;;;6.85;5.50;;;34.70;39.50;;;;;;5105928;28;20058;-91
2021/09/06 11:09:53;;;;;;;5.93;5.32;;;35.20;36.90;;;;;;5107092;28;20095;-88
2021/09/06 11:13:02;;;;;;;7.25;4.40;;;35.30;39.00;;;;;;5103377;28;20459;-88
2021/09/06 11:15:50;;;;;;;8.98;5.30;;;34.90;39.00;;;;;;5106590;28;20480;-87
2021/09/06 11:18:50;;;;;;;7.65;5.60;;;34.60;40.10;;;;;;5118817;28;20055;-87
2021/09/06 11:21:38;;;;;;;7.38;5.82;;;34.30;40.10;;;;;;5102378;28;20050;-90
2021/09/06 11:24:26;;;;;;;6.28;5.53;;;34.50;38.70;;;;;;5105399;28;20048;-89
2021/09/06 11:27:34;;;;;;;8.00;5.78;;;34.30;38.10;;;;;;5091987;28;20055;-88
2021/09/06 11:30:23;;;;;;;5.93;4.78;;;34.00;39.60;;;;;;5111318;28;20457;-91
2021/09/06 11:33:13;;;;;;;7.97;5.50;;;34.10;38.80;;;;;;5115167;28;20047;-89
2021/09/06 11:36:02;;;;;;;7.13;5.28;;;33.70;36.70;;;;;;5133062;27;20116;-87
2021/09/06 11:38:52;;;;;;;6.43;5.47;;;34.00;38.70;;;;;;5123248;27;20437;-88
2021/09/06 11:41:43;;;;;;;7.43;5.57;;;33.30;39.60;;;;;;5121750;27;20024;-87
2021/09/06 11:44:34;;;;;;;6.15;5.05;;;32.80;39.40;;;;;;5123502;27;20042;-92
2021/09/06 11:47:24;;;;;;;7.03;5.40;;;32.60;40.60;;;;;;5122863;27;20039;-90
2021/09/06 11:50:15;;;;;;;6.32;4.82;;;32.50;39.30;;;;;;5109814;27;20104;-92
2021/09/06 11:53:20;;;;;;;6.90;4.97;;;32.40;39.90;;;;;;5137510;27;20032;-91
2021/09/06 11:56:14;;;;;;;7.38;5.10;;;32.90;39.20;;;;;;5123973;27;20040;-88
2021/09/06 11:59:07;;;;;;;7.00;5.10;;;33.30;37.70;;;;;;5128631;28;20055;-87
2021/09/06 12:01:55;;;;;;;6.82;5.93;;;33.20;39.30;;;;;;5124577;28;20098;-86
2021/09/06 12:04:46;;;;;;;7.95;5.45;;;32.80;37.80;;;;;;5102045;28;20035;-89
2021/09/06 12:08:04;;;;;;;;;;;;;;;;;;;;;
2021/09/06 12:15:01;;;;;;;10.00;5.60;;;34.10;37.30;;;;;;5046598;28;20037;-93
2021/09/06 12:22:45;;;;;;;6.93;6.03;;;35.50;34.90;;;;;;4929315;29;20046;-92
2021/09/06 12:26:17;;;;;;;;;;;;;;;;;;;;;
2021/09/06 12:29:42;;;;;;;6.18;5.57;;;33.50;38.40;;;;;;4936585;29;20525;-91
2021/09/06 12:32:35;;;;;;;7.15;4.93;;;33.50;36.80;;;;;;4926391;29;20134;-91
2021/09/06 12:43:56;;;;;;;;;;;;;;;;;;;;;
2021/09/06 12:47:10;;;;;;;7.68;5.45;;;34.90;34.50;;;;;;5034239;28;20045;-91
2021/09/06 13:01:26;;;;;;;6.75;6.05;;;35.20;34.00;;;;;;5314707;23;20054;-88
2021/09/06 13:04:53;;;;;;;9.52;5.47;;;35.40;33.20;;;;;;5019107;28;20072;-92
2021/09/06 13:08:01;;;;;;;6.80;5.30;;;35.40;33.80;;;;;;5048700;28;20097;-90
2021/09/06 13:10:51;;;;;;;6.20;5.60;;;34.60;35.60;;;;;;5047628;28;20044;-92
2021/09/06 13:14:41;;;;;;;6.50;5.65;;;34.30;36.10;;;;;;5179863;23;20041;-93
2021/09/06 13:17:54;;;;;;;7.60;5.50;;;34.80;36.30;;;;;;4973653;28;20134;-91
2021/09/06 13:20:58;;;;;;;8.15;4.90;;;36.60;34.00;;;;;;4980829;28;20069;-93
2021/09/06 13:30:14;;;;;;;7.18;5.03;;;35.30;34.50;;;;;;5097196;22;20056;-92
2021/09/06 13:38:18;;;;;;;7.28;5.10;;;35.30;31.80;;;;;;4972664;28;20715;-92
2021/09/06 13:50:49;;;;;;;;;;;;;;;;;;;;;
2021/09/06 13:54:50;;;;;;;4.78;4.32;;;35.70;30.90;;;;;;4787222;30;20129;-92
2021/09/06 13:58:33;;;;;;;5.97;4.95;;;35.80;31.00;;;;;;4791765;29;20054;-92
2021/09/06 14:01:26;;;;;;;5.03;4.63;;;35.50;31.70;;;;;;4823683;29;20069;-92
2021/09/06 14:04:22;;;;;;;5.85;4.53;;;35.20;30.30;;;;;;4874042;29;20052;-92
2021/09/06 14:08:37;;;;;;;6.50;5.05;;;34.60;31.70;;;;;;5038427;28;20033;-93
2021/09/06 14:11:25;;;;;;;5.75;4.50;;;34.20;31.30;;;;;;5032362;28;20410;-92
2021/09/06 14:15:13;;;;;;;;;;;;;;;;;;;;;
2021/09/06 14:19:08;;;;;;;5.18;4.68;;;36.00;29.80;;;;;;5045403;28;20029;-91
2021/09/06 14:22:40;;;;;;;6.55;4.50;;;36.10;31.90;;;;;;5027259;28;20140;-93
2021/09/06 14:29:52;;;;;;;5.55;4.72;;;35.90;29.70;;;;;;4982998;28;20043;-91
2021/09/06 14:38:10;;;;;;;;;;;;;;;;;;;;;
2021/09/06 14:41:27;;;;;;;6.75;4.50;;;35.00;30.40;;;;;;4882020;29;20076;-94
2021/09/06 14:45:08;;;;;;;;;;;;;;;;;;;;;
2021/09/06 14:48:23;;;;;;;5.13;4.63;;;35.50;31.10;;;;;;4868595;29;20052;-93
2021/09/06 14:56:16;;;;;;;5.88;5.10;;;34.20;32.20;;;;;;4891783;29;20052;-90
2021/09/06 14:59:25;;;;;;;6.82;5.15;;;34.00;33.30;;;;;;5004035;28;20111;-91
2021/09/06 15:02:53;;;;;;;;;;;;;;;;;;;;;
2021/09/06 15:06:00;;;;;;;8.57;5.20;;;33.80;33.00;;;;;;4907046;29;20044;-93
2021/09/06 15:12:54;;;;;;;8.77;5.03;;;33.70;31.80;;;;;;4947706;28;20546;-91
2021/09/06 15:16:03;;;;;;;8.82;4.93;;;33.40;33.80;;;;;;4973776;28;20203;-92
2021/09/06 15:19:01;;;;;;;8.13;4.90;;;33.10;33.80;;;;;;5035144;28;20144;-91
2021/09/06 15:22:03;;;;;;;7.80;4.40;;;33.40;33.20;;;;;;5038358;28;20042;-94
2021/09/06 15:25:23;;;;;;;;;;;;;;;;;;;;;
2021/09/06 15:28:55;;;;;;;5.93;5.18;;;33.50;33.20;;;;;;5008201;28;20329;-93
2021/09/06 15:32:03;;;;;;;7.88;5.00;;;33.20;33.00;;;;;;4975040;28;20039;-91
2021/09/06 15:35:24;;;;;;;;;;;;;;;;;;;;;
2021/09/06 15:38:15;;;;;;;7.22;5.20;;;33.10;32.20;;;;;;4978243;28;20110;-92
2021/09/06 15:42:02;;;;;;;7.68;5.07;;;33.00;33.50;;;;;;4924803;29;20052;-93
2021/09/06 15:45:08;;;;;;;;;;;;;;;;;;;;;
2021/09/06 15:48:04;;;;;;;7.05;5.25;;;32.40;34.50;;;;;;4936233;29;20119;-92
2021/09/06 15:51:42;;;;;;;7.70;5.82;;;32.00;36.00;;;;;;4912955;29;20052;-92
2021/09/06 15:54:29;;;;;;;6.85;5.88;;;31.70;36.90;;;;;;4896628;29;20048;-90
2021/09/06 16:01:18;;;;;;;6.20;5.45;;;31.00;37.60;;;;;;4792260;29;20050;-92
2021/09/06 16:04:25;;;;;;;;;;;;;;;;;;;;;
2021/09/06 16:08:23;;;;;;;;;;;;;;;;;;;;;
2021/09/06 16:11:37;;;;;;;7.20;6.22;;;29.80;39.90;;;;;;4854901;29;20041;-93
2021/09/06 16:14:29;;;;;;;10.05;6.15;;;29.00;41.40;;;;;;4879495;29;20087;-92
2021/09/06 16:18:01;;;;;;;8.77;5.95;;;28.50;41.80;;;;;;4958054;28;20432;-91
2021/09/06 16:21:17;;;;;;;11.20;5.90;;;27.90;43.20;;;;;;4876318;29;20446;-94
2021/09/06 16:24:15;;;;;;;7.20;5.50;;;27.40;44.00;;;;;;4908306;29;20056;-91
2021/09/06 16:27:11;;;;;;;8.05;6.10;;;27.10;44.30;;;;;;4873201;29;20052;-91
2021/09/06 16:30:01;;;;;;;9.73;6.20;;;26.60;45.40;;;;;;4892330;29;20143;-92
2021/09/06 16:36:14;;;;;;;8.80;6.00;;;25.40;47.90;;;;;;4886621;29;20064;-92
2021/09/06 16:39:36;;;;;;;8.48;6.38;;;24.60;49.30;;;;;;4967334;28;20053;-92
2021/09/06 16:43:04;;;;;;;;;;;24.20;51.20;;;;;;4998795;28;20062;-93
2021/09/06 16:46:14;;;;;;;8.75;6.15;;;23.70;51.80;;;;;;4996301;28;19922;-92
2021/09/06 16:49:20;;;;;;;8.82;5.80;;;23.40;52.50;;;;;;5026382;28;20534;-92
2021/09/06 16:52:11;;;;;;;8.30;6.30;;;23.10;53.10;;;;;;4998162;28;20235;-91
2021/09/06 16:55:00;;;;;;;10.75;7.35;;;23.00;52.80;;;;;;5033738;28;20390;-91
2021/09/06 16:58:02;;;;;;;8.23;6.55;;;22.90;54.00;;;;;;5026625;28;20080;-93
2021/09/06 17:00:49;;;;;;;8.57;6.53;;;22.70;54.40;;;;;;5022475;28;20048;-92
2021/09/06 17:03:39;;;;;;;10.23;6.25;;;22.50;54.40;;;;;;5009346;28;20143;-93
2021/09/06 17:06:27;;;;;;;7.88;5.40;;;22.40;55.40;;;;;;5028299;28;20042;-90
2021/09/06 17:09:14;;;;;;;10.95;6.97;;;22.30;55.70;;;;;;5027758;28;20037;-90
2021/09/06 17:22:50;;;;;;;10.60;6.57;;;21.80;59.50;;;;;;3897760;23;20293;-81